YMML/MEL METAR and TAF weather

Enter ICAO airport designator
Station Type Date Time Source
YMML METAR 2020/11/27 14:00 UTC NOAA

YMML 271400Z 17005KT CAVOK 21/14 Q1006


Station Type Date Time Source
YMML Decoded METAR 2020/11/27 14:00 UTC NOAA

Melbourne Airport, Australia (YMML) 37-40S 144-50E 141M
Nov 27, 2020 - 09:00 AM EST / 2020.11.27 1400 UTC
Wind: from the S (170 degrees) at 6 MPH (5 KT):0
Visibility: greater than 7 mile(s):0
Temperature: 69 F (21 C)
Dew Point: 57 F (14 C)
Relative Humidity: 64%
Pressure (altimeter): 29.71 in. Hg (1006 hPa)
ob: YMML 271400Z 17005KT CAVOK 21/14 Q1006
cycle: 14

Station Type Date Time Source
YMML TAF 2020/11/27 15:21 UTC NOAA

TAF
AMD TAF YMML 271418Z 2715/2818 18005KT CAVOK
BECMG 2717/2718 21005KT 9999 -SHRA BKN008
BECMG 2721/2722 01010KT CAVOK
FM280300 18013KT 9999 FEW015 SCT020
FM281100 21008KT 9999 -SHRA BKN012
TEMPO 2814/2818 5000 RA BKN005

Example: see airport list